Terminal Aerodrome Forecast
Issued by NWS

Home | Current Version | Previous Version | Text Only | Print | Product List | Glossary On
Versions: 1 2 3 4 5 6 7 8 9 10 11 12
000
FTUS46 KSEW 121100
TAFBFI
TAF
KBFI 121120Z 1212/1312 VRB03KT P6SM SCT200
     FM122000 30005KT P6SM SKC
     FM130400 VRB03KT P6SM SKC=

USA.gov is the U.S. government's official web portal to all federal, state and local government web resources and services.